createdAt,value
2019-03-22T00:00:57.038Z,0.00
2019-03-22T00:01:57.010Z,0.00
2019-03-22T00:02:58.040Z,0.00
2019-03-22T00:03:57.016Z,0.00
2019-03-22T00:04:57.039Z,0.00
2019-03-22T00:05:56.966Z,0.00
2019-03-22T00:06:56.982Z,0.00
2019-03-22T00:07:56.969Z,0.00
2019-03-22T00:08:56.931Z,0.00
2019-03-22T00:09:56.945Z,0.00
2019-03-22T00:10:56.913Z,0.00
2019-03-22T00:11:56.956Z,0.00
2019-03-22T00:12:56.928Z,0.00
2019-03-22T00:13:56.880Z,0.00
2019-03-22T00:14:56.899Z,0.00
2019-03-22T00:15:56.883Z,0.00
2019-03-22T00:16:56.843Z,0.00
2019-03-22T00:17:56.841Z,0.00
2019-03-22T00:18:56.844Z,0.00
2019-03-22T00:19:56.882Z,0.00
2019-03-22T00:20:56.829Z,0.00
2019-03-22T00:21:57.482Z,0.00
2019-03-22T00:22:56.860Z,0.00
2019-03-22T00:23:57.480Z,0.00
2019-03-22T00:24:56.760Z,0.00
2019-03-22T00:25:57.473Z,0.00
2019-03-22T00:26:56.809Z,0.00
2019-03-22T00:27:56.729Z,0.00
2019-03-22T00:28:57.469Z,0.00
2019-03-22T00:29:56.744Z,0.00
2019-03-22T00:30:56.696Z,0.00
2019-03-22T00:31:56.711Z,0.00
2019-03-22T00:32:56.671Z,0.00
2019-03-22T00:33:56.691Z,0.00
2019-03-22T00:34:57.467Z,0.00
2019-03-22T00:35:56.631Z,0.00
2019-03-22T00:36:57.471Z,0.00
2019-03-22T00:37:56.668Z,0.00
2019-03-22T00:38:56.608Z,0.00
2019-03-22T00:39:57.485Z,0.00
2019-03-22T00:40:57.465Z,0.00
2019-03-22T00:41:56.611Z,0.00
2019-03-22T00:42:56.580Z,0.00
2019-03-22T00:43:57.467Z,0.00
2019-03-22T00:44:56.582Z,0.00
2019-03-22T00:45:56.522Z,0.00
2019-03-22T00:46:56.511Z,0.00
2019-03-22T00:47:56.543Z,0.00
2019-03-22T00:48:56.501Z,0.00
2019-03-22T00:49:56.549Z,0.00
2019-03-22T00:50:56.477Z,0.00
2019-03-22T00:51:56.498Z,0.00
2019-03-22T00:52:56.447Z,0.00
2019-03-22T00:53:56.964Z,0.00
2019-03-22T00:54:57.459Z,0.00
2019-03-22T00:55:56.417Z,0.00
2019-03-22T00:56:56.409Z,0.00
2019-03-22T00:57:56.397Z,0.00
2019-03-22T00:58:56.383Z,0.00
2019-03-22T00:59:56.395Z,0.00
2019-03-22T01:00:56.387Z,0.00
2019-03-22T01:01:56.400Z,0.00
2019-03-22T01:02:56.954Z,0.00
2019-03-22T01:03:56.376Z,0.00
2019-03-22T01:04:56.339Z,0.00
2019-03-22T01:05:56.316Z,0.00
2019-03-22T01:06:56.318Z,0.00
2019-03-22T01:07:56.285Z,0.00
2019-03-22T01:08:56.313Z,0.00
2019-03-22T01:09:56.284Z,0.00
2019-03-22T01:10:56.254Z,0.00
2019-03-22T01:11:56.253Z,0.00
2019-03-22T01:12:56.372Z,0.00
2019-03-22T01:13:56.580Z,0.00
2019-03-22T01:14:56.278Z,0.00
2019-03-22T01:15:56.235Z,0.00
2019-03-22T01:16:56.953Z,0.00
2019-03-22T01:17:56.181Z,0.00
2019-03-22T01:18:56.172Z,0.00
2019-03-22T01:19:56.172Z,0.00
2019-03-22T01:20:56.151Z,0.00
2019-03-22T01:21:56.198Z,0.00
2019-03-22T01:22:56.123Z,0.00
2019-03-22T01:23:56.153Z,0.00
2019-03-22T01:24:56.944Z,0.00
2019-03-22T01:25:56.084Z,0.00
2019-03-22T01:26:56.077Z,0.00
2019-03-22T01:27:56.198Z,0.00
2019-03-22T01:28:56.144Z,0.00
2019-03-22T01:29:56.046Z,0.00
2019-03-22T01:30:56.042Z,0.00
2019-03-22T01:31:56.997Z,0.00
2019-03-22T01:32:56.038Z,0.00
2019-03-22T01:33:56.082Z,0.00
2019-03-22T01:34:55.992Z,0.00
2019-03-22T01:35:55.999Z,0.00
2019-03-22T01:36:56.034Z,0.00
2019-03-22T01:37:55.978Z,0.00
2019-03-22T01:38:55.969Z,0.00
2019-03-22T01:39:56.007Z,0.00
2019-03-22T01:40:55.954Z,0.00
2019-03-22T01:41:55.934Z,0.00
2019-03-22T01:42:55.937Z,0.00
2019-03-22T01:43:55.888Z,0.00
2019-03-22T01:44:55.997Z,0.00
2019-03-22T01:45:55.874Z,0.00
2019-03-22T01:46:55.865Z,0.00
2019-03-22T01:47:55.862Z,0.00
2019-03-22T01:48:56.428Z,0.00
2019-03-22T01:49:55.824Z,0.00
2019-03-22T01:50:55.849Z,0.00
2019-03-22T01:51:55.821Z,0.00
2019-03-22T01:52:55.791Z,0.00
2019-03-22T01:53:56.468Z,0.00
2019-03-22T01:54:55.793Z,0.00
2019-03-22T01:55:55.762Z,0.00
2019-03-22T01:56:55.783Z,0.00
2019-03-22T01:57:55.748Z,0.00
2019-03-22T01:58:55.755Z,0.00
2019-03-22T01:59:55.724Z,0.00
2019-03-22T02:00:55.710Z,0.00
2019-03-22T02:01:55.723Z,0.00
2019-03-22T02:02:55.774Z,0.00
2019-03-22T02:03:55.669Z,0.00
2019-03-22T02:04:55.678Z,0.00
2019-03-22T02:05:55.649Z,0.00
2019-03-22T02:06:55.642Z,0.00
2019-03-22T02:07:55.634Z,0.00
2019-03-22T02:08:55.627Z,0.00
2019-03-22T02:09:55.645Z,0.00
2019-03-22T02:10:55.596Z,0.00
2019-03-22T02:11:56.426Z,0.00
2019-03-22T02:12:55.568Z,0.00
2019-03-22T02:13:55.590Z,0.00
2019-03-22T02:14:55.551Z,0.00
2019-03-22T02:15:55.560Z,0.00
2019-03-22T02:16:55.544Z,0.00
2019-03-22T02:17:55.640Z,0.00
2019-03-22T02:18:55.539Z,0.00
2019-03-22T02:19:55.550Z,0.00
2019-03-22T02:20:55.489Z,0.00
2019-03-22T02:21:55.489Z,0.00
2019-03-22T02:22:55.461Z,0.00
2019-03-22T02:23:56.417Z,0.00
2019-03-22T02:24:55.464Z,0.00
2019-03-22T02:25:55.436Z,0.00
2019-03-22T02:26:55.431Z,0.00
2019-03-22T02:28:03.728Z,0.00
2019-03-22T02:28:56.397Z,0.00
2019-03-22T02:29:55.380Z,0.00
2019-03-22T02:30:55.373Z,0.00
2019-03-22T02:31:55.363Z,0.00
2019-03-22T02:32:55.388Z,0.00
2019-03-22T02:33:55.347Z,0.00
2019-03-22T02:34:55.395Z,0.00
2019-03-22T02:35:55.320Z,0.00
2019-03-22T02:36:55.311Z,0.00
2019-03-22T02:37:55.299Z,0.00
2019-03-22T02:38:55.282Z,0.00
2019-03-22T02:39:55.291Z,0.00
2019-03-22T02:40:55.293Z,0.00
2019-03-22T02:41:55.265Z,0.00
2019-03-22T02:42:55.278Z,0.00
2019-03-22T02:43:55.258Z,0.00
2019-03-22T02:44:55.904Z,0.00
2019-03-22T02:45:55.240Z,0.00
2019-03-22T02:46:55.191Z,0.00
2019-03-22T02:47:55.179Z,0.00
2019-03-22T02:48:55.903Z,0.00
2019-03-22T02:49:55.191Z,0.00
2019-03-22T02:50:56.252Z,0.00
2019-03-22T02:51:55.160Z,0.00
2019-03-22T02:52:55.197Z,0.00
2019-03-22T02:53:55.130Z,0.00
2019-03-22T02:54:55.122Z,0.00
2019-03-22T02:55:55.219Z,0.00
2019-03-22T02:56:55.121Z,0.00
2019-03-22T02:57:55.972Z,0.00
2019-03-22T02:58:55.146Z,0.00
2019-03-22T02:59:55.063Z,0.00
2019-03-22T03:00:55.889Z,0.00
2019-03-22T03:01:55.054Z,0.00
2019-03-22T03:02:55.041Z,0.00
2019-03-22T03:03:55.012Z,0.00
2019-03-22T03:04:55.070Z,0.00
2019-03-22T03:05:55.031Z,0.00
2019-03-22T03:06:54.987Z,0.00
2019-03-22T03:07:54.998Z,0.00
2019-03-22T03:08:54.990Z,0.00
2019-03-22T03:09:54.941Z,0.00
2019-03-22T03:10:54.997Z,0.00
2019-03-22T03:11:54.919Z,0.00
2019-03-22T03:12:54.958Z,0.00
2019-03-22T03:13:54.953Z,0.00
2019-03-22T03:14:54.890Z,0.00
2019-03-22T03:15:54.907Z,0.00
2019-03-22T03:16:54.905Z,0.00
2019-03-22T03:17:55.381Z,0.00
2019-03-22T03:18:54.847Z,0.00
2019-03-22T03:19:54.833Z,0.00
2019-03-22T03:20:54.822Z,0.00
2019-03-22T03:21:54.899Z,0.00
2019-03-22T03:22:54.803Z,0.00
2019-03-22T03:23:54.838Z,0.00
2019-03-22T03:24:54.779Z,0.00
2019-03-22T03:25:54.818Z,0.00
2019-03-22T03:26:54.759Z,0.00
2019-03-22T03:27:54.747Z,0.00
2019-03-22T03:28:55.426Z,0.00
2019-03-22T03:29:54.723Z,0.00
2019-03-22T03:30:55.391Z,0.00
2019-03-22T03:31:54.712Z,0.00
2019-03-22T03:32:54.707Z,0.00
2019-03-22T03:33:55.882Z,0.00
2019-03-22T03:34:54.671Z,0.00
2019-03-22T03:35:54.752Z,0.00
2019-03-22T03:36:54.648Z,0.00
2019-03-22T03:37:55.430Z,0.00
2019-03-22T03:38:54.691Z,0.00
2019-03-22T03:39:54.619Z,0.00
2019-03-22T03:40:55.493Z,0.00
2019-03-22T03:41:54.677Z,0.00
2019-03-22T03:42:54.584Z,0.00
2019-03-22T03:43:55.377Z,0.00
2019-03-22T03:44:54.562Z,0.00
2019-03-22T03:45:55.373Z,0.00
2019-03-22T03:46:54.553Z,0.00
2019-03-22T03:47:54.575Z,0.00
2019-03-22T03:48:54.530Z,0.00
2019-03-22T03:49:54.510Z,0.00
2019-03-22T03:50:54.510Z,0.00
2019-03-22T03:51:55.371Z,0.00
2019-03-22T03:52:54.486Z,0.00
2019-03-22T03:53:54.493Z,0.00
2019-03-22T03:54:54.449Z,0.00
2019-03-22T03:55:54.508Z,0.00
2019-03-22T03:56:54.425Z,0.00
2019-03-22T03:57:54.454Z,0.00
2019-03-22T03:58:54.410Z,0.00
2019-03-22T03:59:54.405Z,0.00
2019-03-22T04:00:55.413Z,0.00
2019-03-22T04:01:54.369Z,0.00
2019-03-22T04:02:54.371Z,0.00
2019-03-22T04:03:54.354Z,0.00
2019-03-22T04:04:54.392Z,0.00
2019-03-22T04:05:55.363Z,0.00
2019-03-22T04:06:54.310Z,0.00
2019-03-22T04:07:54.315Z,0.00
2019-03-22T04:08:54.365Z,0.00
2019-03-22T04:09:54.302Z,0.00
2019-03-22T04:10:54.304Z,0.00
2019-03-22T04:11:54.282Z,0.00
2019-03-22T04:12:54.251Z,0.00
2019-03-22T04:13:54.241Z,0.00
2019-03-22T04:14:54.224Z,0.00
2019-03-22T04:15:54.213Z,0.00
2019-03-22T04:16:54.862Z,0.00
2019-03-22T04:17:54.886Z,0.00
2019-03-22T04:18:54.184Z,0.00
2019-03-22T04:19:54.175Z,0.00
2019-03-22T04:20:54.164Z,0.00
2019-03-22T04:21:54.161Z,0.00
2019-03-22T04:22:54.170Z,0.00
2019-03-22T04:23:54.140Z,0.00
2019-03-22T04:24:54.121Z,0.00
2019-03-22T04:25:54.105Z,0.00
2019-03-22T04:26:54.167Z,0.00
2019-03-22T04:27:54.127Z,0.00
2019-03-22T04:29:06.640Z,0.00
2019-03-22T04:29:55.055Z,0.00
2019-03-22T04:30:54.850Z,0.00
2019-03-22T04:31:54.046Z,0.00
2019-03-22T04:32:54.107Z,0.00
2019-03-22T04:33:54.076Z,0.00
2019-03-22T04:34:54.038Z,0.00
2019-03-22T04:35:54.048Z,0.00
2019-03-22T04:36:53.992Z,0.00
2019-03-22T04:37:54.898Z,0.00
2019-03-22T04:38:53.985Z,0.00
2019-03-22T04:39:54.032Z,0.00
2019-03-22T04:40:53.991Z,0.00
2019-03-22T04:41:53.980Z,0.00
2019-03-22T04:42:54.000Z,0.00
2019-03-22T04:43:53.905Z,0.00
2019-03-22T04:44:53.901Z,0.00
2019-03-22T04:45:53.883Z,0.00
2019-03-22T04:46:53.901Z,0.00
2019-03-22T04:47:53.887Z,0.00
2019-03-22T04:48:53.855Z,0.00
2019-03-22T04:49:53.839Z,0.00
2019-03-22T04:50:53.887Z,0.00
2019-03-22T04:51:53.897Z,0.00
2019-03-22T04:52:53.826Z,0.00
2019-03-22T04:53:53.816Z,0.00
2019-03-22T04:54:53.807Z,0.00
2019-03-22T04:55:53.797Z,0.00
2019-03-22T04:56:53.885Z,0.00
2019-03-22T04:57:53.759Z,0.00
2019-03-22T04:58:53.791Z,0.00
2019-03-22T04:59:53.789Z,0.00
2019-03-22T05:00:53.727Z,0.00
2019-03-22T05:01:53.716Z,0.00
2019-03-22T05:02:53.703Z,0.00
2019-03-22T05:03:53.742Z,0.00
2019-03-22T05:04:53.681Z,0.00
2019-03-22T05:05:53.670Z,0.00
2019-03-22T05:06:54.375Z,0.00
2019-03-22T05:07:53.650Z,0.00
2019-03-22T05:08:54.324Z,0.00
2019-03-22T05:09:53.664Z,0.00
2019-03-22T05:10:53.632Z,0.00
2019-03-22T05:11:57.423Z,0.00
2019-03-22T05:12:54.324Z,0.00
2019-03-22T05:13:53.610Z,0.00
2019-03-22T05:14:54.818Z,0.00
2019-03-22T05:15:53.556Z,0.00
2019-03-22T05:16:53.560Z,0.00
2019-03-22T05:17:53.543Z,0.00
2019-03-22T05:18:53.541Z,0.00
2019-03-22T05:19:53.522Z,0.00
2019-03-22T05:20:54.359Z,0.00
2019-03-22T05:21:53.541Z,0.00
2019-03-22T05:22:53.479Z,0.00
2019-03-22T05:23:53.463Z,0.00
2019-03-22T05:24:53.466Z,0.00
2019-03-22T05:25:53.485Z,0.00
2019-03-22T05:26:53.485Z,0.00
2019-03-22T05:27:53.425Z,0.00
2019-03-22T05:28:53.421Z,0.00
2019-03-22T05:29:53.403Z,0.00
2019-03-22T05:30:53.389Z,0.00
2019-03-22T05:31:53.420Z,0.00
2019-03-22T05:32:53.394Z,0.00
2019-03-22T05:33:53.408Z,0.00
2019-03-22T05:34:54.805Z,5.62
2019-03-22T05:35:53.418Z,5.62
2019-03-22T05:36:53.356Z,5.62
2019-03-22T05:37:53.343Z,5.62
2019-03-22T05:38:53.306Z,5.62
2019-03-22T05:39:53.295Z,5.62
2019-03-22T05:40:53.294Z,5.62
2019-03-22T05:41:53.350Z,5.62
2019-03-22T05:42:53.325Z,5.62
2019-03-22T05:43:53.249Z,5.62
2019-03-22T05:44:53.240Z,5.62
2019-03-22T05:45:53.261Z,5.62
2019-03-22T05:46:53.215Z,5.62
2019-03-22T05:47:53.229Z,5.62
2019-03-22T05:48:53.215Z,5.62
2019-03-22T05:49:53.229Z,5.62
2019-03-22T05:50:53.267Z,5.62
2019-03-22T05:51:53.162Z,5.62
2019-03-22T05:52:53.155Z,5.62
2019-03-22T05:53:53.231Z,5.62
2019-03-22T05:54:53.795Z,5.62
2019-03-22T05:55:53.120Z,5.62
2019-03-22T05:56:53.105Z,5.62
2019-03-22T05:57:53.106Z,11.25
2019-03-22T05:58:53.796Z,11.25
2019-03-22T05:59:53.102Z,11.25
2019-03-22T06:00:53.077Z,11.25
2019-03-22T06:01:53.055Z,11.25
2019-03-22T06:02:53.063Z,11.25
2019-03-22T06:03:53.035Z,11.25
2019-03-22T06:04:53.018Z,11.25
2019-03-22T06:05:53.006Z,11.25
2019-03-22T06:06:52.991Z,11.25
2019-03-22T06:07:53.020Z,11.25
2019-03-22T06:08:52.979Z,11.25
2019-03-22T06:09:52.965Z,16.88
2019-03-22T06:10:52.957Z,16.88
2019-03-22T06:11:52.938Z,16.88
2019-03-22T06:12:52.930Z,16.88
2019-03-22T06:13:52.947Z,16.88
2019-03-22T06:14:52.911Z,16.88
2019-03-22T06:15:52.901Z,16.88
2019-03-22T06:16:52.886Z,16.88
2019-03-22T06:17:52.922Z,16.88
2019-03-22T06:18:52.901Z,16.88
2019-03-22T06:19:52.852Z,16.88
2019-03-22T06:20:52.841Z,16.88
2019-03-22T06:21:52.840Z,22.50
2019-03-22T06:22:52.838Z,22.50
2019-03-22T06:23:52.855Z,16.88
2019-03-22T06:24:52.819Z,22.50
2019-03-22T06:25:52.795Z,22.50
2019-03-22T06:26:52.781Z,22.50
2019-03-22T06:27:53.325Z,22.50
2019-03-22T06:28:52.763Z,16.88
2019-03-22T06:29:54.438Z,16.88
2019-03-22T06:30:52.738Z,16.88
2019-03-22T06:31:52.774Z,22.50
2019-03-22T06:32:52.710Z,16.88
2019-03-22T06:33:52.722Z,16.88
2019-03-22T06:34:52.694Z,16.88
2019-03-22T06:35:52.706Z,16.88
2019-03-22T06:36:52.702Z,16.88
2019-03-22T06:37:52.667Z,16.88
2019-03-22T06:38:52.642Z,22.50
2019-03-22T06:39:52.670Z,22.50
2019-03-22T06:40:52.654Z,22.50
2019-03-22T06:41:52.610Z,22.50
2019-03-22T06:42:52.610Z,22.50
2019-03-22T06:43:52.605Z,22.50
2019-03-22T06:44:52.593Z,22.50
2019-03-22T06:45:52.581Z,22.50
2019-03-22T06:46:52.630Z,22.50
2019-03-22T06:47:52.554Z,22.50
2019-03-22T06:48:52.540Z,22.50
2019-03-22T06:49:52.523Z,22.50
2019-03-22T06:50:52.510Z,22.50
2019-03-22T06:51:52.562Z,22.50
2019-03-22T06:52:52.496Z,22.50
2019-03-22T06:53:52.505Z,28.12
2019-03-22T06:54:52.474Z,28.12
2019-03-22T06:55:52.455Z,28.12
2019-03-22T06:56:52.458Z,28.12
2019-03-22T06:57:52.470Z,33.75
2019-03-22T06:58:52.429Z,33.75
2019-03-22T06:59:52.423Z,33.75
2019-03-22T07:00:52.416Z,28.12
2019-03-22T07:01:52.394Z,28.12
2019-03-22T07:02:52.423Z,28.12
2019-03-22T07:03:52.372Z,33.75
2019-03-22T07:04:52.366Z,33.75
2019-03-22T07:05:52.408Z,33.75
2019-03-22T07:06:52.339Z,28.12
2019-03-22T07:07:52.367Z,28.12
2019-03-22T07:08:52.382Z,33.75
2019-03-22T07:09:52.306Z,33.75
2019-03-22T07:10:52.292Z,28.12
2019-03-22T07:11:52.379Z,33.75
2019-03-22T07:12:52.308Z,33.75
2019-03-22T07:13:52.260Z,33.75
2019-03-22T07:14:52.320Z,33.75
2019-03-22T07:15:52.242Z,33.75
2019-03-22T07:16:52.236Z,33.75
2019-03-22T07:17:52.753Z,33.75
2019-03-22T07:18:52.210Z,33.75
2019-03-22T07:19:52.198Z,39.38
2019-03-22T07:20:52.189Z,33.75
2019-03-22T07:21:52.179Z,33.75
2019-03-22T07:22:52.257Z,33.75
2019-03-22T07:23:52.152Z,33.75
2019-03-22T07:24:52.145Z,39.38
2019-03-22T07:25:52.135Z,33.75
2019-03-22T07:26:52.123Z,33.75
2019-03-22T07:27:52.106Z,33.75
2019-03-22T07:28:52.128Z,33.75
2019-03-22T07:29:52.111Z,33.75
2019-03-22T07:30:52.074Z,33.75
2019-03-22T07:31:52.068Z,33.75
2019-03-22T07:32:52.103Z,39.38
2019-03-22T07:33:52.088Z,39.38
2019-03-22T07:34:52.027Z,33.75
2019-03-22T07:35:52.056Z,33.75
2019-03-22T07:36:52.013Z,33.75
2019-03-22T07:37:52.002Z,33.75
2019-03-22T07:38:51.993Z,33.75
2019-03-22T07:39:51.975Z,33.75
2019-03-22T07:40:52.114Z,33.75
2019-03-22T07:41:51.966Z,33.75
2019-03-22T07:42:52.004Z,33.75
2019-03-22T07:43:52.028Z,33.75
2019-03-22T07:44:51.918Z,33.75
2019-03-22T07:45:51.908Z,33.75
2019-03-22T07:46:51.944Z,33.75
2019-03-22T07:47:51.887Z,33.75
2019-03-22T07:48:51.906Z,33.75
2019-03-22T07:49:51.914Z,33.75
2019-03-22T07:50:51.892Z,33.75
2019-03-22T07:51:51.843Z,33.75
2019-03-22T07:52:51.832Z,33.75
2019-03-22T07:53:51.870Z,39.38
2019-03-22T07:54:51.815Z,39.38
2019-03-22T07:55:51.801Z,39.38
2019-03-22T07:56:51.829Z,39.38
2019-03-22T07:57:51.786Z,39.38
2019-03-22T07:58:51.778Z,39.38
2019-03-22T07:59:51.796Z,39.38
2019-03-22T08:00:51.828Z,39.38
2019-03-22T08:01:51.763Z,39.38
2019-03-22T08:02:51.734Z,39.38
2019-03-22T08:03:51.810Z,39.38
2019-03-22T08:04:51.743Z,39.38
2019-03-22T08:05:51.809Z,39.38
2019-03-22T08:06:51.716Z,39.38
2019-03-22T08:07:51.696Z,39.38
2019-03-22T08:08:51.733Z,39.38
2019-03-22T08:09:51.665Z,39.38
2019-03-22T08:10:51.637Z,39.38
2019-03-22T08:11:51.694Z,39.38
2019-03-22T08:12:51.642Z,39.38
2019-03-22T08:13:51.631Z,39.38
2019-03-22T08:14:51.684Z,39.38
2019-03-22T08:15:51.589Z,39.38
2019-03-22T08:16:51.615Z,39.38
2019-03-22T08:17:51.870Z,39.38
2019-03-22T08:18:51.639Z,39.38
2019-03-22T08:19:51.550Z,39.38
2019-03-22T08:20:51.544Z,39.38
2019-03-22T08:21:51.557Z,33.75
2019-03-22T08:22:51.555Z,33.75
2019-03-22T08:23:51.585Z,33.75
2019-03-22T08:24:51.508Z,39.38
2019-03-22T08:25:51.527Z,39.38
2019-03-22T08:26:51.479Z,39.38
2019-03-22T08:27:51.480Z,39.38
2019-03-22T08:28:51.490Z,39.38
2019-03-22T08:29:51.468Z,33.75
2019-03-22T08:30:51.441Z,33.75
2019-03-22T08:31:51.412Z,39.38
2019-03-22T08:32:51.415Z,39.38
2019-03-22T08:33:51.394Z,39.38
2019-03-22T08:34:51.454Z,39.38
2019-03-22T08:35:51.368Z,39.38
2019-03-22T08:36:51.414Z,39.38
2019-03-22T08:37:52.763Z,39.38
2019-03-22T08:38:51.350Z,39.38
2019-03-22T08:39:51.405Z,39.38
2019-03-22T08:40:51.391Z,39.38
2019-03-22T08:41:51.305Z,39.38
2019-03-22T08:42:51.291Z,39.38
2019-03-22T08:43:52.267Z,33.75
2019-03-22T08:44:51.294Z,39.38
2019-03-22T08:45:51.354Z,39.38
2019-03-22T08:46:51.260Z,39.38
2019-03-22T08:47:51.253Z,39.38
2019-03-22T08:48:51.240Z,39.38
2019-03-22T08:49:51.391Z,39.38
2019-03-22T08:50:51.204Z,39.38
2019-03-22T08:51:51.264Z,39.38
2019-03-22T08:52:51.181Z,39.38
2019-03-22T08:53:55.377Z,39.38
2019-03-22T08:54:51.694Z,39.38
2019-03-22T08:55:51.156Z,39.38
2019-03-22T08:56:51.206Z,39.38
2019-03-22T08:57:51.153Z,39.38
2019-03-22T08:58:51.142Z,39.38
2019-03-22T08:59:51.198Z,45.00
2019-03-22T09:00:57.532Z,45.00
2019-03-22T09:01:52.133Z,45.00
2019-03-22T09:02:51.067Z,45.00
2019-03-22T09:03:51.110Z,45.00
2019-03-22T09:04:51.076Z,45.00
2019-03-22T09:05:51.119Z,45.00
2019-03-22T09:06:51.083Z,45.00
2019-03-22T09:07:51.047Z,45.00
2019-03-22T09:08:51.038Z,39.38
2019-03-22T09:09:51.049Z,39.38
2019-03-22T09:10:51.002Z,39.38
2019-03-22T09:11:51.003Z,39.38
2019-03-22T09:12:51.062Z,39.38
2019-03-22T09:13:53.667Z,39.38
2019-03-22T09:14:51.023Z,39.38
2019-03-22T09:15:50.980Z,39.38
2019-03-22T09:16:50.961Z,45.00
2019-03-22T09:17:50.955Z,45.00
2019-03-22T09:18:50.924Z,39.38
2019-03-22T09:19:51.331Z,39.38
2019-03-22T09:20:51.741Z,39.38
2019-03-22T09:21:50.899Z,39.38
2019-03-22T09:22:50.905Z,39.38
2019-03-22T09:23:50.836Z,39.38
2019-03-22T09:24:50.850Z,39.38
2019-03-22T09:25:50.849Z,39.38
2019-03-22T09:26:50.817Z,39.38
2019-03-22T09:27:50.803Z,39.38
2019-03-22T09:28:50.787Z,39.38
2019-03-22T09:29:50.801Z,39.38
2019-03-22T09:30:50.783Z,39.38
2019-03-22T09:31:53.586Z,39.38
2019-03-22T09:32:50.741Z,39.38
2019-03-22T09:33:50.734Z,39.38
2019-03-22T09:34:50.777Z,45.00
2019-03-22T09:35:50.735Z,45.00
2019-03-22T09:36:50.752Z,45.00
2019-03-22T09:37:50.701Z,45.00
2019-03-22T09:38:50.675Z,45.00
2019-03-22T09:39:50.671Z,45.00
2019-03-22T09:40:50.725Z,45.00
2019-03-22T09:41:51.211Z,45.00
2019-03-22T09:42:52.880Z,45.00
2019-03-22T09:43:50.621Z,45.00
2019-03-22T09:44:50.657Z,45.00
2019-03-22T09:45:50.716Z,45.00
2019-03-22T09:46:50.589Z,45.00
2019-03-22T09:47:50.581Z,45.00
2019-03-22T09:48:50.617Z,45.00
2019-03-22T09:49:51.370Z,45.00
2019-03-22T09:50:50.570Z,45.00
2019-03-22T09:51:50.548Z,45.00
2019-03-22T09:52:51.223Z,45.00
2019-03-22T09:53:50.575Z,45.00
2019-03-22T09:54:50.531Z,45.00
2019-03-22T09:55:50.544Z,45.00
2019-03-22T09:56:50.472Z,45.00
2019-03-22T09:57:50.487Z,45.00
2019-03-22T09:58:50.449Z,45.00
2019-03-22T09:59:50.441Z,45.00
2019-03-22T10:00:50.560Z,45.00
2019-03-22T10:01:50.430Z,45.00
2019-03-22T10:02:50.433Z,45.00
2019-03-22T10:03:50.411Z,45.00
2019-03-22T10:04:50.393Z,45.00
2019-03-22T10:05:50.398Z,45.00
2019-03-22T10:06:50.400Z,45.00
2019-03-22T10:07:50.380Z,45.00
2019-03-22T10:08:50.360Z,45.00
2019-03-22T10:09:50.347Z,45.00
2019-03-22T10:10:50.328Z,45.00
2019-03-22T10:11:50.336Z,45.00
2019-03-22T10:12:51.526Z,45.00
2019-03-22T10:13:50.374Z,45.00
2019-03-22T10:14:50.430Z,45.00
2019-03-22T10:15:50.277Z,45.00
2019-03-22T10:16:50.346Z,45.00
2019-03-22T10:17:50.271Z,45.00
2019-03-22T10:18:50.307Z,45.00
2019-03-22T10:19:50.288Z,45.00
2019-03-22T10:20:50.264Z,45.00
2019-03-22T10:21:50.222Z,45.00
2019-03-22T10:22:50.247Z,45.00
2019-03-22T10:23:50.245Z,45.00
2019-03-22T10:24:50.312Z,45.00
2019-03-22T10:25:50.192Z,45.00
2019-03-22T10:26:50.146Z,45.00
2019-03-22T10:27:50.251Z,45.00
2019-03-22T10:28:50.150Z,45.00
2019-03-22T10:29:50.341Z,45.00
2019-03-22T10:30:50.116Z,45.00
2019-03-22T10:31:50.106Z,45.00
2019-03-22T10:32:50.176Z,45.00
2019-03-22T10:33:50.073Z,45.00
2019-03-22T10:34:50.117Z,45.00
2019-03-22T10:35:50.689Z,45.00
2019-03-22T10:36:50.642Z,45.00
2019-03-22T10:37:50.050Z,45.00
2019-03-22T10:38:50.538Z,45.00
2019-03-22T10:39:50.089Z,45.00
2019-03-22T10:40:50.033Z,45.00
2019-03-22T10:41:50.027Z,45.00
2019-03-22T10:42:50.029Z,45.00
2019-03-22T10:43:49.995Z,45.00
2019-03-22T10:44:49.978Z,45.00
2019-03-22T10:45:50.061Z,45.00
2019-03-22T10:46:49.944Z,45.00
2019-03-22T10:47:50.643Z,45.00
2019-03-22T10:48:49.980Z,45.00
2019-03-22T10:49:49.952Z,45.00
2019-03-22T10:50:49.925Z,45.00
2019-03-22T10:51:56.678Z,45.00
2019-03-22T10:52:50.868Z,45.00
2019-03-22T10:53:49.883Z,45.00
2019-03-22T10:54:49.938Z,45.00
2019-03-22T10:55:49.852Z,45.00
2019-03-22T10:56:49.827Z,45.00
2019-03-22T10:57:49.897Z,45.00
2019-03-22T10:58:49.797Z,45.00
2019-03-22T10:59:49.796Z,45.00
2019-03-22T11:00:49.823Z,45.00
2019-03-22T11:02:02.555Z,45.00
2019-03-22T11:02:50.772Z,45.00
2019-03-22T11:03:49.816Z,45.00
2019-03-22T11:04:49.744Z,45.00
2019-03-22T11:05:49.738Z,45.00
2019-03-22T11:06:49.727Z,45.00
2019-03-22T11:07:49.740Z,45.00
2019-03-22T11:08:49.702Z,45.00
2019-03-22T11:09:49.723Z,45.00
2019-03-22T11:10:49.681Z,45.00
2019-03-22T11:11:49.664Z,45.00
2019-03-22T11:12:49.676Z,45.00
2019-03-22T11:13:49.669Z,45.00
2019-03-22T11:14:49.640Z,45.00
2019-03-22T11:15:49.620Z,45.00
2019-03-22T11:16:49.636Z,45.00
2019-03-22T11:17:49.603Z,45.00
2019-03-22T11:18:49.619Z,45.00
2019-03-22T11:19:49.579Z,45.00
2019-03-22T11:20:49.570Z,45.00
2019-03-22T11:21:49.617Z,45.00
2019-03-22T11:22:49.541Z,45.00
2019-03-22T11:23:49.523Z,45.00
2019-03-22T11:24:49.544Z,45.00
2019-03-22T11:25:49.509Z,45.00
2019-03-22T11:26:49.501Z,45.00
2019-03-22T11:27:52.541Z,45.00
2019-03-22T11:28:49.489Z,45.00
2019-03-22T11:29:49.504Z,45.00
2019-03-22T11:30:49.450Z,45.00
2019-03-22T11:31:49.442Z,45.00
2019-03-22T11:32:49.435Z,45.00
2019-03-22T11:33:49.463Z,39.38
2019-03-22T11:34:49.402Z,45.00
2019-03-22T11:35:49.416Z,45.00
2019-03-22T11:36:49.431Z,45.00
2019-03-22T11:37:49.375Z,45.00
2019-03-22T11:38:49.363Z,45.00
2019-03-22T11:39:49.373Z,39.38
2019-03-22T11:40:49.339Z,39.38
2019-03-22T11:41:49.386Z,39.38
2019-03-22T11:42:51.428Z,39.38
2019-03-22T11:43:49.307Z,39.38
2019-03-22T11:44:49.319Z,39.38
2019-03-22T11:45:49.332Z,39.38
2019-03-22T11:46:49.279Z,39.38
2019-03-22T11:47:49.261Z,39.38
2019-03-22T11:48:49.352Z,39.38
2019-03-22T11:49:49.272Z,39.38
2019-03-22T11:50:49.232Z,39.38
2019-03-22T11:51:49.264Z,39.38
2019-03-22T11:52:49.216Z,39.38
2019-03-22T11:53:49.203Z,39.38
2019-03-22T11:54:49.209Z,39.38
2019-03-22T11:55:49.196Z,39.38
2019-03-22T11:56:49.162Z,39.38
2019-03-22T11:57:49.147Z,39.38
2019-03-22T11:58:49.146Z,39.38
2019-03-22T11:59:49.131Z,39.38
2019-03-22T12:00:49.165Z,39.38
2019-03-22T12:01:49.127Z,39.38
2019-03-22T12:02:49.104Z,39.38
2019-03-22T12:03:49.104Z,39.38
2019-03-22T12:04:49.078Z,39.38
2019-03-22T12:05:49.066Z,39.38
2019-03-22T12:06:49.071Z,39.38
2019-03-22T12:07:49.039Z,39.38
2019-03-22T12:08:49.031Z,39.38
2019-03-22T12:09:49.048Z,39.38
2019-03-22T12:10:49.026Z,39.38
2019-03-22T12:11:49.061Z,39.38
2019-03-22T12:12:49.013Z,39.38
2019-03-22T12:13:48.983Z,39.38
2019-03-22T12:14:49.032Z,33.75
2019-03-22T12:15:48.971Z,33.75
2019-03-22T12:16:48.946Z,33.75
2019-03-22T12:17:48.949Z,33.75
2019-03-22T12:18:50.430Z,33.75
2019-03-22T12:19:48.923Z,33.75
2019-03-22T12:20:48.904Z,33.75
2019-03-22T12:21:48.909Z,33.75
2019-03-22T12:22:48.884Z,33.75
2019-03-22T12:23:48.890Z,33.75
2019-03-22T12:24:48.861Z,33.75
2019-03-22T12:25:48.853Z,33.75
2019-03-22T12:26:48.839Z,33.75
2019-03-22T12:27:48.827Z,33.75
2019-03-22T12:28:48.844Z,33.75
2019-03-22T12:29:48.799Z,33.75
2019-03-22T12:30:48.826Z,33.75
2019-03-22T12:31:48.790Z,33.75
2019-03-22T12:32:49.665Z,33.75
2019-03-22T12:33:48.767Z,33.75
2019-03-22T12:34:48.752Z,33.75
2019-03-22T12:35:48.777Z,33.75
2019-03-22T12:36:48.748Z,33.75
2019-03-22T12:37:48.716Z,33.75
2019-03-22T12:38:48.709Z,33.75
2019-03-22T12:39:48.713Z,33.75
2019-03-22T12:40:48.755Z,33.75
2019-03-22T12:41:48.686Z,33.75
2019-03-22T12:42:48.675Z,33.75
2019-03-22T12:43:48.690Z,33.75
2019-03-22T12:44:48.640Z,33.75
2019-03-22T12:45:48.669Z,33.75
2019-03-22T12:46:49.289Z,33.75
2019-03-22T12:47:48.658Z,33.75
2019-03-22T12:48:48.607Z,28.12
2019-03-22T12:49:48.587Z,33.75
2019-03-22T12:50:48.568Z,28.12
2019-03-22T12:51:48.571Z,28.12
2019-03-22T12:52:48.575Z,28.12
2019-03-22T12:53:48.570Z,28.12
2019-03-22T12:54:49.342Z,28.12
2019-03-22T12:55:48.794Z,28.12
2019-03-22T12:56:48.557Z,28.12
2019-03-22T12:57:48.500Z,28.12
2019-03-22T12:58:48.489Z,28.12
2019-03-22T12:59:48.486Z,28.12
2019-03-22T13:00:48.473Z,28.12
2019-03-22T13:01:48.457Z,28.12
2019-03-22T13:02:48.442Z,28.12
2019-03-22T13:03:48.436Z,28.12
2019-03-22T13:04:48.548Z,28.12